Time;durP1;ratioP1;P1;durP2;ratioP2;P2;SDS_P1;SDS_P2;PMS_P1;PMS_P2;Temp;Humidity;BMP_temperature;BMP_pressure;BME280_temperature;BME280_humidity;BME280_pressure;Samples;Min_cycle;Max_cycle;Signal;HPM_P1;HPM_P2
2024/02/20 00:00:09;;;;;;;36.92;7.18;;;;;;;;;;5079673;28;20025;-64
2024/02/20 00:02:35;;;;;;;30.17;5.53;;;;;;;;;;5076474;28;20500;-63
2024/02/20 00:05:03;;;;;;;35.35;5.40;;;;;;;;;;5070112;28;20048;-64
2024/02/20 00:07:29;;;;;;;38.83;5.78;;;;;;;;;;5073006;28;20017;-64
2024/02/20 00:09:55;;;;;;;35.50;4.70;;;;;;;;;;5066818;28;20035;-64
2024/02/20 00:12:21;;;;;;;44.20;6.38;;;;;;;;;;5071656;28;20085;-62
2024/02/20 00:14:47;;;;;;;38.42;5.75;;;;;;;;;;5070325;28;20162;-61
2024/02/20 00:17:13;;;;;;;32.72;5.15;;;;;;;;;;5075307;28;20102;-63
2024/02/20 00:19:39;;;;;;;36.08;4.97;;;;;;;;;;5076542;28;20028;-62
2024/02/20 00:22:05;;;;;;;31.50;5.25;;;;;;;;;;5076571;28;20144;-63
2024/02/20 00:24:31;;;;;;;38.00;5.38;;;;;;;;;;5069734;28;20017;-64
2024/02/20 00:26:58;;;;;;;33.03;5.07;;;;;;;;;;5072407;28;20036;-63
2024/02/20 00:29:24;;;;;;;26.25;5.93;;;;;;;;;;5062270;28;20626;-64
2024/02/20 00:31:50;;;;;;;32.17;5.03;;;;;;;;;;5073292;28;20020;-65
2024/02/20 00:34:16;;;;;;;23.02;5.40;;;;;;;;;;5069573;28;20493;-64
2024/02/20 00:36:42;;;;;;;28.90;4.85;;;;;;;;;;5072485;28;20025;-63
2024/02/20 00:39:08;;;;;;;31.98;4.40;;;;;;;;;;5068962;28;20040;-63
2024/02/20 00:41:33;;;;;;;32.90;5.63;;;;;;;;;;5077806;28;20425;-61
2024/02/20 00:43:59;;;;;;;31.25;5.28;;;;;;;;;;5069004;28;20033;-64
2024/02/20 00:46:25;;;;;;;35.28;5.93;;;;;;;;;;5065067;28;20025;-63
2024/02/20 00:48:51;;;;;;;36.58;5.57;;;;;;;;;;5061759;28;20032;-63
2024/02/20 00:51:19;;;;;;;39.78;6.22;;;;;;;;;;5074404;28;20024;-63
2024/02/20 00:53:54;;;;;;;27.85;4.20;;;;;;;;;;5067736;28;20012;-63
2024/02/20 00:56:20;;;;;;;39.03;5.20;;;;;;;;;;5064991;28;20107;-65
2024/02/20 00:58:46;;;;;;;28.02;4.82;;;;;;;;;;5073264;28;20489;-64
2024/02/20 01:01:12;;;;;;;39.03;5.03;;;;;;;;;;5066743;28;20037;-64
2024/02/20 01:03:39;;;;;;;23.35;5.25;;;;;;;;;;5067824;28;20392;-63
2024/02/20 01:06:08;;;;;;;23.42;4.47;;;;;;;;;;5068907;28;20052;-63
2024/02/20 01:08:34;;;;;;;33.97;5.10;;;;;;;;;;5073221;28;20017;-63
2024/02/20 01:11:00;;;;;;;36.15;5.25;;;;;;;;;;5071775;28;20028;-63
2024/02/20 01:13:26;;;;;;;41.83;5.85;;;;;;;;;;5073863;28;20406;-63
2024/02/20 01:15:52;;;;;;;23.08;4.40;;;;;;;;;;5066626;28;20488;-63
2024/02/20 01:18:18;;;;;;;32.47;4.93;;;;;;;;;;5070671;28;20028;-63
2024/02/20 01:20:44;;;;;;;38.42;6.97;;;;;;;;;;5067958;28;20391;-62
2024/02/20 01:23:10;;;;;;;40.15;5.07;;;;;;;;;;5071908;28;20370;-63
2024/02/20 01:25:36;;;;;;;31.13;5.93;;;;;;;;;;5073823;28;20502;-64
2024/02/20 01:28:02;;;;;;;27.85;4.93;;;;;;;;;;5067630;28;20513;-64
2024/02/20 01:30:28;;;;;;;43.03;6.35;;;;;;;;;;5072981;28;20123;-63
2024/02/20 01:32:57;;;;;;;32.85;4.97;;;;;;;;;;5071679;28;20028;-63
2024/02/20 01:35:23;;;;;;;31.98;5.25;;;;;;;;;;5063063;28;20021;-64
2024/02/20 01:37:49;;;;;;;36.05;5.20;;;;;;;;;;5071133;28;20429;-64
2024/02/20 01:40:16;;;;;;;35.80;5.47;;;;;;;;;;5066967;28;20039;-64
2024/02/20 01:42:43;;;;;;;34.80;5.32;;;;;;;;;;5072559;28;20059;-64
2024/02/20 01:45:09;;;;;;;34.58;5.45;;;;;;;;;;5070162;28;20029;-64
2024/02/20 01:47:35;;;;;;;36.10;5.18;;;;;;;;;;5065323;28;20028;-62
2024/02/20 01:50:02;;;;;;;44.15;5.72;;;;;;;;;;5069742;28;20028;-64
2024/02/20 01:52:28;;;;;;;30.55;4.35;;;;;;;;;;5072162;28;20389;-63
2024/02/20 01:54:59;;;;;;;40.78;5.93;;;;;;;;;;5066741;28;20078;-64
2024/02/20 01:57:25;;;;;;;41.30;9.25;;;;;;;;;;5070660;28;20512;-65
2024/02/20 01:59:52;;;;;;;44.15;5.18;;;;;;;;;;5065894;28;20029;-64
2024/02/20 02:02:20;;;;;;;28.58;4.78;;;;;;;;;;5066205;28;20024;-65
2024/02/20 02:04:45;;;;;;;27.25;6.13;;;;;;;;;;5061991;28;20032;-64
2024/02/20 02:07:11;;;;;;;27.50;5.32;;;;;;;;;;5064229;28;20055;-62
2024/02/20 02:09:38;;;;;;;38.85;5.88;;;;;;;;;;5068237;28;20074;-64
2024/02/20 02:12:04;;;;;;;34.75;5.60;;;;;;;;;;5075294;28;20099;-64
2024/02/20 02:14:30;;;;;;;36.13;5.18;;;;;;;;;;5069807;28;20021;-64
2024/02/20 02:16:56;;;;;;;35.30;7.05;;;;;;;;;;5074017;28;20040;-64
2024/02/20 02:19:22;;;;;;;43.17;7.07;;;;;;;;;;5069286;28;20032;-64
2024/02/20 02:21:48;;;;;;;37.00;6.68;;;;;;;;;;5064680;28;20490;-62
2024/02/20 02:24:14;;;;;;;30.77;6.25;;;;;;;;;;5065604;28;20027;-63
2024/02/20 02:26:40;;;;;;;41.25;6.80;;;;;;;;;;5070786;28;20029;-63
2024/02/20 02:29:07;;;;;;;36.95;6.82;;;;;;;;;;5071312;28;20024;-64
2024/02/20 02:31:33;;;;;;;33.45;8.20;;;;;;;;;;5070463;28;20358;-64
2024/02/20 02:33:59;;;;;;;29.73;6.65;;;;;;;;;;5066569;28;20044;-64
2024/02/20 02:36:25;;;;;;;38.58;7.10;;;;;;;;;;5069241;28;20017;-63
2024/02/20 02:38:52;;;;;;;50.45;7.15;;;;;;;;;;5067265;28;20039;-65
2024/02/20 02:41:18;;;;;;;33.83;7.03;;;;;;;;;;5068616;28;20032;-64
2024/02/20 02:43:45;;;;;;;35.38;8.05;;;;;;;;;;5063701;28;20047;-63
2024/02/20 02:46:14;;;;;;;36.70;9.27;;;;;;;;;;5069116;28;20020;-65
2024/02/20 02:48:39;;;;;;;46.60;8.85;;;;;;;;;;5069968;28;20025;-64
2024/02/20 02:51:08;;;;;;;30.63;7.95;;;;;;;;;;5065135;28;20124;-64
2024/02/20 02:53:34;;;;;;;33.33;9.40;;;;;;;;;;5070097;28;20028;-65
2024/02/20 02:56:00;;;;;;;36.53;8.82;;;;;;;;;;5065339;28;20025;-64
2024/02/20 02:58:26;;;;;;;35.13;8.55;;;;;;;;;;5068515;28;20544;-64
2024/02/20 03:00:52;;;;;;;38.65;8.98;;;;;;;;;;5068478;28;20028;-65
2024/02/20 03:03:18;;;;;;;54.15;10.32;;;;;;;;;;5066940;28;20028;-64
2024/02/20 03:05:44;;;;;;;52.92;11.63;;;;;;;;;;5066157;28;20096;-62
2024/02/20 03:08:10;;;;;;;49.67;11.68;;;;;;;;;;5068016;28;20052;-63
2024/02/20 03:10:40;;;;;;;39.30;9.23;;;;;;;;;;5067339;28;20632;-64
2024/02/20 03:13:06;;;;;;;46.90;11.75;;;;;;;;;;5068134;28;20077;-64
2024/02/20 03:15:32;;;;;;;55.42;11.75;;;;;;;;;;5065447;28;20017;-64
2024/02/20 03:17:58;;;;;;;41.20;10.73;;;;;;;;;;5069232;28;20039;-64
2024/02/20 03:20:24;;;;;;;43.60;11.52;;;;;;;;;;5066432;28;20032;-64
2024/02/20 03:22:50;;;;;;;43.08;10.43;;;;;;;;;;5075334;28;20052;-64
2024/02/20 03:25:16;;;;;;;48.88;11.85;;;;;;;;;;5067639;28;20020;-64
2024/02/20 03:27:42;;;;;;;46.00;11.15;;;;;;;;;;5067940;28;20032;-64
2024/02/20 03:30:10;;;;;;;44.90;11.27;;;;;;;;;;5070966;28;20020;-62
2024/02/20 03:32:35;;;;;;;53.08;11.68;;;;;;;;;;5068347;28;20029;-61
2024/02/20 03:35:02;;;;;;;53.20;10.82;;;;;;;;;;5061956;28;20039;-63
2024/02/20 03:37:29;;;;;;;44.55;11.48;;;;;;;;;;5066645;28;20020;-64
2024/02/20 03:39:55;;;;;;;51.55;11.10;;;;;;;;;;5067066;28;20115;-60
2024/02/20 03:42:21;;;;;;;47.92;11.05;;;;;;;;;;5067787;28;20577;-63
2024/02/20 03:44:47;;;;;;;47.65;11.32;;;;;;;;;;5068856;28;20093;-60
2024/02/20 03:47:13;;;;;;;45.88;11.40;;;;;;;;;;5060909;28;20119;-62
2024/02/20 03:49:39;;;;;;;38.30;10.60;;;;;;;;;;5066099;28;20180;-62
2024/02/20 03:52:05;;;;;;;51.20;12.93;;;;;;;;;;5069203;28;20023;-64
2024/02/20 03:54:31;;;;;;;44.17;12.68;;;;;;;;;;5068206;28;20040;-63
2024/02/20 03:56:57;;;;;;;53.17;12.30;;;;;;;;;;5065764;28;20028;-62
2024/02/20 03:59:23;;;;;;;50.67;12.80;;;;;;;;;;5069619;28;20028;-63
2024/02/20 04:01:49;;;;;;;69.13;14.57;;;;;;;;;;5067473;28;20082;-63
2024/02/20 04:04:15;;;;;;;76.55;14.48;;;;;;;;;;5067454;28;20024;-63
2024/02/20 04:06:41;;;;;;;69.20;13.65;;;;;;;;;;5063514;28;20560;-63
2024/02/20 04:09:07;;;;;;;64.25;12.98;;;;;;;;;;5063039;28;20021;-62
2024/02/20 04:11:33;;;;;;;52.55;12.35;;;;;;;;;;5067930;28;20493;-65
2024/02/20 04:14:00;;;;;;;47.33;13.50;;;;;;;;;;5067860;28;20036;-65
2024/02/20 04:16:26;;;;;;;53.95;13.65;;;;;;;;;;5060109;28;20036;-65
2024/02/20 04:18:52;;;;;;;39.35;12.48;;;;;;;;;;5067500;28;20031;-65
2024/02/20 04:21:18;;;;;;;73.53;14.25;;;;;;;;;;5066900;28;20372;-65
2024/02/20 04:23:44;;;;;;;50.00;14.02;;;;;;;;;;5065545;28;20505;-65
2024/02/20 04:26:10;;;;;;;51.70;14.10;;;;;;;;;;5064341;28;20571;-64
2024/02/20 04:28:35;;;;;;;53.92;13.93;;;;;;;;;;5061578;28;20025;-64
2024/02/20 04:31:02;;;;;;;55.28;14.75;;;;;;;;;;5067629;28;20033;-64
2024/02/20 04:33:29;;;;;;;50.67;12.82;;;;;;;;;;5063700;28;20364;-65
2024/02/20 04:35:55;;;;;;;53.97;14.23;;;;;;;;;;5064984;28;20033;-64
2024/02/20 04:38:21;;;;;;;54.30;14.20;;;;;;;;;;5064838;28;20669;-63
2024/02/20 04:40:50;;;;;;;62.95;15.25;;;;;;;;;;5069296;28;20028;-64
2024/02/20 04:43:17;;;;;;;57.72;14.43;;;;;;;;;;5070810;28;20525;-63
2024/02/20 04:45:43;;;;;;;64.75;14.88;;;;;;;;;;5068746;28;20494;-65
2024/02/20 04:48:09;;;;;;;48.35;15.50;;;;;;;;;;5067542;28;20086;-64
2024/02/20 04:50:35;;;;;;;57.78;15.25;;;;;;;;;;5069228;28;20028;-65
2024/02/20 04:53:01;;;;;;;65.65;15.40;;;;;;;;;;5064882;28;20064;-64
2024/02/20 04:55:27;;;;;;;51.95;16.35;;;;;;;;;;5062717;28;20380;-65
2024/02/20 04:57:53;;;;;;;60.35;17.05;;;;;;;;;;5064532;28;20043;-64
2024/02/20 05:00:19;;;;;;;57.67;17.08;;;;;;;;;;5061110;28;20395;-64
2024/02/20 05:02:46;;;;;;;47.45;15.50;;;;;;;;;;5069017;28;20394;-64
2024/02/20 05:05:12;;;;;;;71.53;19.02;;;;;;;;;;5063335;28;20039;-64
2024/02/20 05:07:38;;;;;;;79.60;18.17;;;;;;;;;;5066825;28;20017;-65
2024/02/20 05:10:07;;;;;;;63.00;16.27;;;;;;;;;;5071232;28;20025;-64
2024/02/20 05:12:34;;;;;;;56.92;16.58;;;;;;;;;;5072285;28;20036;-64
2024/02/20 05:14:59;;;;;;;56.13;19.27;;;;;;;;;;5066798;28;20460;-64
2024/02/20 05:17:25;;;;;;;76.75;18.77;;;;;;;;;;5073913;28;20155;-65
2024/02/20 05:19:51;;;;;;;71.75;19.17;;;;;;;;;;5065771;28;20063;-60
2024/02/20 05:22:19;;;;;;;58.63;17.45;;;;;;;;;;5071743;28;20028;-65
2024/02/20 05:24:45;;;;;;;77.70;19.20;;;;;;;;;;5068795;28;20031;-63
2024/02/20 05:27:12;;;;;;;70.03;17.77;;;;;;;;;;5065565;28;20032;-64
2024/02/20 05:29:39;;;;;;;48.00;16.95;;;;;;;;;;5064424;28;20054;-64
2024/02/20 05:32:05;;;;;;;61.53;19.40;;;;;;;;;;5068264;28;20028;-64
2024/02/20 05:34:30;;;;;;;55.95;16.15;;;;;;;;;;5065268;28;20040;-64
2024/02/20 05:36:56;;;;;;;66.72;16.70;;;;;;;;;;5063220;28;20036;-64
2024/02/20 05:39:22;;;;;;;54.58;17.23;;;;;;;;;;5063301;28;20059;-65
2024/02/20 05:41:48;;;;;;;58.92;18.67;;;;;;;;;;5066176;28;20033;-64
2024/02/20 05:44:14;;;;;;;51.97;17.70;;;;;;;;;;5068299;28;20039;-64
2024/02/20 05:46:40;;;;;;;60.17;16.15;;;;;;;;;;5063953;28;20025;-65
2024/02/20 05:49:06;;;;;;;56.20;15.98;;;;;;;;;;5069822;28;20112;-64
2024/02/20 05:51:33;;;;;;;49.83;13.98;;;;;;;;;;5064464;28;20024;-64
2024/02/20 05:53:59;;;;;;;47.28;15.15;;;;;;;;;;5069081;28;20025;-64
2024/02/20 05:56:25;;;;;;;44.60;14.88;;;;;;;;;;5062231;28;20037;-64
2024/02/20 05:58:51;;;;;;;52.67;16.88;;;;;;;;;;5070758;28;20626;-65
2024/02/20 06:01:17;;;;;;;63.33;16.20;;;;;;;;;;5065751;28;20029;-64
2024/02/20 06:03:44;;;;;;;50.80;15.90;;;;;;;;;;5066891;28;20163;-63
2024/02/20 06:06:11;;;;;;;58.25;15.45;;;;;;;;;;5065104;28;20475;-64
2024/02/20 06:08:44;;;;;;;38.90;14.25;;;;;;;;;;5064684;28;20021;-64
2024/02/20 06:11:14;;;;;;;53.10;14.68;;;;;;;;;;5063980;28;20191;-64
2024/02/20 06:13:40;;;;;;;50.80;15.18;;;;;;;;;;5065020;28;20031;-64
2024/02/20 06:16:06;;;;;;;45.28;15.93;;;;;;;;;;5070533;28;20395;-62
2024/02/20 06:18:32;;;;;;;42.55;13.85;;;;;;;;;;5066425;28;20672;-60
2024/02/20 06:20:58;;;;;;;61.60;16.73;;;;;;;;;;5068600;28;20078;-59
2024/02/20 06:23:24;;;;;;;47.08;16.08;;;;;;;;;;5068264;28;20060;-57
2024/02/20 06:25:50;;;;;;;38.05;15.73;;;;;;;;;;5071791;28;20031;-59
2024/02/20 06:28:18;;;;;;;48.03;15.32;;;;;;;;;;5074480;28;20032;-60
2024/02/20 06:30:45;;;;;;;38.20;14.85;;;;;;;;;;5076708;28;20021;-59
2024/02/20 06:33:11;;;;;;;45.38;14.55;;;;;;;;;;5068913;28;20044;-59
2024/02/20 06:35:37;;;;;;;49.17;15.52;;;;;;;;;;5072504;28;20054;-58
2024/02/20 06:38:03;;;;;;;47.00;14.63;;;;;;;;;;5073158;28;20035;-60
2024/02/20 06:40:29;;;;;;;47.95;15.75;;;;;;;;;;5073939;28;20089;-59
2024/02/20 06:42:55;;;;;;;68.15;16.95;;;;;;;;;;5070376;28;20048;-60
2024/02/20 06:45:21;;;;;;;45.60;15.45;;;;;;;;;;5066925;28;20033;-61
2024/02/20 06:47:48;;;;;;;51.08;16.75;;;;;;;;;;5073543;28;20024;-59
2024/02/20 06:50:14;;;;;;;42.92;14.27;;;;;;;;;;5078427;28;20084;-59
2024/02/20 06:52:40;;;;;;;50.15;15.20;;;;;;;;;;5071983;28;20032;-58
2024/02/20 06:55:06;;;;;;;59.05;16.13;;;;;;;;;;5069570;28;20396;-58
2024/02/20 06:57:35;;;;;;;40.60;14.48;;;;;;;;;;5065747;28;20394;-59
2024/02/20 07:00:01;;;;;;;49.10;14.45;;;;;;;;;;5065897;28;20065;-58
2024/02/20 07:02:27;;;;;;;44.10;13.85;;;;;;;;;;5065632;28;20036;-60
2024/02/20 07:04:54;;;;;;;49.95;15.02;;;;;;;;;;5068264;28;20052;-58
2024/02/20 07:07:20;;;;;;;43.28;13.05;;;;;;;;;;5073495;28;20020;-60
2024/02/20 07:09:46;;;;;;;49.60;14.63;;;;;;;;;;5081147;28;20069;-60
2024/02/20 07:12:12;;;;;;;41.55;12.73;;;;;;;;;;5070035;28;20096;-60
2024/02/20 07:14:39;;;;;;;39.72;14.10;;;;;;;;;;5069241;28;20028;-59
2024/02/20 07:17:05;;;;;;;52.05;13.65;;;;;;;;;;5084906;28;20060;-59
2024/02/20 07:19:30;;;;;;;51.28;15.52;;;;;;;;;;5081316;28;20063;-59
2024/02/20 07:21:57;;;;;;;50.90;13.77;;;;;;;;;;5076353;28;20039;-59
2024/02/20 07:24:24;;;;;;;50.60;15.38;;;;;;;;;;5081664;28;20025;-60
2024/02/20 07:26:50;;;;;;;44.08;13.63;;;;;;;;;;5079326;28;20151;-58
2024/02/20 07:29:19;;;;;;;54.15;16.40;;;;;;;;;;5079154;28;20060;-59
2024/02/20 07:31:45;;;;;;;50.38;15.13;;;;;;;;;;5075301;28;20028;-59
2024/02/20 07:34:11;;;;;;;53.42;16.73;;;;;;;;;;5077537;28;20043;-59
2024/02/20 07:36:37;;;;;;;83.57;20.77;;;;;;;;;;5079821;28;20028;-60
2024/02/20 07:39:04;;;;;;;63.88;17.75;;;;;;;;;;5076548;28;20032;-58
2024/02/20 07:41:30;;;;;;;56.72;17.42;;;;;;;;;;5065952;28;20111;-58
2024/02/20 07:43:56;;;;;;;53.83;16.77;;;;;;;;;;5065047;28;20029;-59
2024/02/20 07:46:22;;;;;;;77.40;18.50;;;;;;;;;;5067347;28;20031;-59
2024/02/20 07:48:48;;;;;;;59.83;18.95;;;;;;;;;;5065798;28;20017;-58
2024/02/20 07:51:16;;;;;;;61.33;16.95;;;;;;;;;;5065219;28;20025;-56
2024/02/20 07:53:43;;;;;;;45.30;15.38;;;;;;;;;;5068865;28;20490;-59
2024/02/20 07:56:09;;;;;;;57.40;17.20;;;;;;;;;;5065454;28;20062;-58
2024/02/20 07:58:38;;;;;;;54.42;18.42;;;;;;;;;;5070633;28;20584;-59
2024/02/20 08:01:13;;;;;;;50.97;16.98;;;;;;;;;;5065017;28;20024;-59
2024/02/20 08:03:39;;;;;;;57.80;15.50;;;;;;;;;;5069263;28;20039;-60
2024/02/20 08:06:05;;;;;;;59.60;15.98;;;;;;;;;;5070742;28;20036;-59
2024/02/20 08:08:31;;;;;;;57.67;14.98;;;;;;;;;;5073177;28;20060;-59
2024/02/20 08:10:57;;;;;;;50.17;15.27;;;;;;;;;;5069962;28;20021;-58
2024/02/20 08:13:25;;;;;;;49.58;15.20;;;;;;;;;;5068201;28;20078;-58
2024/02/20 08:15:50;;;;;;;47.47;15.15;;;;;;;;;;5059605;28;20057;-58
2024/02/20 08:18:16;;;;;;;54.50;15.00;;;;;;;;;;5063682;28;20117;-58
2024/02/20 08:20:42;;;;;;;55.42;14.52;;;;;;;;;;5068583;28;20036;-57
2024/02/20 08:23:08;;;;;;;42.33;13.02;;;;;;;;;;5065009;28;20075;-59
2024/02/20 08:25:34;;;;;;;44.95;14.38;;;;;;;;;;5069820;28;20021;-59
2024/02/20 08:28:00;;;;;;;62.40;15.25;;;;;;;;;;5067324;28;20055;-59
2024/02/20 08:30:26;;;;;;;46.65;14.60;;;;;;;;;;5072847;28;20479;-59
2024/02/20 08:32:53;;;;;;;60.67;15.30;;;;;;;;;;5071522;28;20475;-59
2024/02/20 08:35:19;;;;;;;50.90;14.10;;;;;;;;;;5063064;28;20102;-59
2024/02/20 08:37:45;;;;;;;55.05;13.35;;;;;;;;;;5072124;28;20428;-59
2024/02/20 08:40:12;;;;;;;52.03;14.73;;;;;;;;;;5074364;28;20036;-60
2024/02/20 08:42:38;;;;;;;53.80;13.70;;;;;;;;;;5073362;28;20029;-59
2024/02/20 08:45:04;;;;;;;50.08;13.32;;;;;;;;;;5071518;28;20315;-58
2024/02/20 08:47:31;;;;;;;58.50;13.57;;;;;;;;;;5072930;28;20046;-59
2024/02/20 08:49:57;;;;;;;46.45;12.13;;;;;;;;;;5068861;28;20039;-58
2024/02/20 08:52:23;;;;;;;45.55;12.55;;;;;;;;;;5073268;28;20490;-58
2024/02/20 08:54:49;;;;;;;48.35;13.48;;;;;;;;;;5072179;28;20020;-55
2024/02/20 08:57:15;;;;;;;42.13;11.68;;;;;;;;;;5070544;28;20035;-59
2024/02/20 08:59:41;;;;;;;41.90;12.27;;;;;;;;;;5072895;28;20032;-60
2024/02/20 09:02:07;;;;;;;54.25;14.32;;;;;;;;;;5075912;28;20025;-59
2024/02/20 09:04:33;;;;;;;48.83;11.30;;;;;;;;;;5069459;28;20028;-58
2024/02/20 09:06:59;;;;;;;38.25;10.63;;;;;;;;;;5067481;28;20056;-59
2024/02/20 09:09:25;;;;;;;38.25;11.07;;;;;;;;;;5067214;28;20028;-59
2024/02/20 09:11:51;;;;;;;54.55;12.45;;;;;;;;;;5073006;28;20021;-59
2024/02/20 09:14:19;;;;;;;52.75;11.27;;;;;;;;;;5069623;28;20063;-59
2024/02/20 09:16:45;;;;;;;43.80;11.80;;;;;;;;;;5071086;28;20526;-58
2024/02/20 09:19:11;;;;;;;45.38;11.13;;;;;;;;;;5068075;28;20041;-59
2024/02/20 09:21:38;;;;;;;46.45;11.25;;;;;;;;;;5068396;28;20498;-59
2024/02/20 09:24:04;;;;;;;38.13;10.25;;;;;;;;;;5068271;28;20643;-58
2024/02/20 09:26:31;;;;;;;36.10;10.43;;;;;;;;;;5068355;28;20510;-59
2024/02/20 09:28:57;;;;;;;34.50;10.18;;;;;;;;;;5073478;28;20024;-59
2024/02/20 09:31:23;;;;;;;37.72;10.73;;;;;;;;;;5067358;28;20045;-59
2024/02/20 09:33:49;;;;;;;37.72;10.18;;;;;;;;;;5065265;28;20029;-59
2024/02/20 09:36:15;;;;;;;31.90;9.90;;;;;;;;;;5070490;28;20041;-59
2024/02/20 09:38:41;;;;;;;36.40;10.05;;;;;;;;;;5072457;28;20600;-58
2024/02/20 09:41:07;;;;;;;38.35;10.13;;;;;;;;;;5064217;28;20060;-60
2024/02/20 09:43:34;;;;;;;36.72;10.27;;;;;;;;;;5070022;28;20081;-57
2024/02/20 09:46:06;;;;;;;41.88;10.50;;;;;;;;;;5065975;28;20033;-58
2024/02/20 09:48:32;;;;;;;40.10;9.40;;;;;;;;;;5068078;28;20032;-59
2024/02/20 09:51:00;;;;;;;37.70;9.52;;;;;;;;;;5065898;28;20563;-59
2024/02/20 09:53:26;;;;;;;40.63;10.13;;;;;;;;;;5067455;28;20557;-58
2024/02/20 09:55:53;;;;;;;44.28;10.65;;;;;;;;;;5066957;28;20442;-58
2024/02/20 09:58:19;;;;;;;39.38;9.75;;;;;;;;;;5066561;28;20036;-57
2024/02/20 10:00:45;;;;;;;35.30;9.85;;;;;;;;;;5066265;28;20104;-58
2024/02/20 10:03:12;;;;;;;62.15;10.77;;;;;;;;;;5066953;28;20039;-60
2024/02/20 10:05:44;;;;;;;44.15;10.88;;;;;;;;;;5065865;28;20395;-60
2024/02/20 10:08:10;;;;;;;34.63;9.70;;;;;;;;;;5061744;28;20024;-58
2024/02/20 10:10:38;;;;;;;41.30;9.15;;;;;;;;;;5064713;28;20032;-59
2024/02/20 10:13:04;;;;;;;42.53;9.95;;;;;;;;;;5068081;28;20335;-59
2024/02/20 10:15:30;;;;;;;44.10;10.27;;;;;;;;;;5064962;28;20560;-59
2024/02/20 10:18:00;;;;;;;48.85;11.45;;;;;;;;;;5061935;28;20036;-59
2024/02/20 10:20:26;;;;;;;43.92;10.60;;;;;;;;;;5069136;28;20029;-57
2024/02/20 10:22:52;;;;;;;45.90;11.32;;;;;;;;;;5074809;28;20044;-59
2024/02/20 10:25:18;;;;;;;47.22;10.60;;;;;;;;;;5065377;28;20809;-59
2024/02/20 10:27:44;;;;;;;41.35;11.15;;;;;;;;;;5064122;28;20064;-59
2024/02/20 10:30:10;;;;;;;43.35;9.32;;;;;;;;;;5071588;28;20406;-58
2024/02/20 10:32:37;;;;;;;47.25;10.15;;;;;;;;;;5066643;28;20479;-61
2024/02/20 10:35:05;;;;;;;32.28;8.10;;;;;;;;;;5065936;28;20073;-60
2024/02/20 10:37:31;;;;;;;34.40;8.55;;;;;;;;;;5068349;28;20536;-60
2024/02/20 10:40:17;;;;;;;34.53;7.13;;;;;;;;;;5071511;28;20036;-61
2024/02/20 10:42:43;;;;;;;33.90;8.05;;;;;;;;;;5065212;28;20049;-57
2024/02/20 10:45:12;;;;;;;32.60;6.95;;;;;;;;;;5064686;28;20144;-59
2024/02/20 10:47:45;;;;;;;30.85;7.60;;;;;;;;;;5066874;28;20051;-60
2024/02/20 10:50:12;;;;;;;48.40;9.23;;;;;;;;;;5064307;28;20037;-59
2024/02/20 10:52:39;;;;;;;33.03;8.25;;;;;;;;;;5062902;28;20016;-58
2024/02/20 10:55:06;;;;;;;41.95;8.65;;;;;;;;;;5064334;28;20028;-59
2024/02/20 10:57:34;;;;;;;35.45;9.82;;;;;;;;;;5065510;28;20084;-59
2024/02/20 11:00:01;;;;;;;35.42;8.23;;;;;;;;;;5067374;28;20029;-60
2024/02/20 11:02:28;;;;;;;26.67;8.93;;;;;;;;;;5066590;28;20020;-60
2024/02/20 11:04:54;;;;;;;35.20;8.40;;;;;;;;;;5062551;28;21945;-58
2024/02/20 11:07:20;;;;;;;39.58;9.43;;;;;;;;;;5066884;28;20025;-59
2024/02/20 11:10:05;;;;;;;37.42;8.43;;;;;;;;;;5066077;28;20036;-59
2024/02/20 11:12:32;;;;;;;27.92;8.07;;;;;;;;;;5068432;28;20032;-57
2024/02/20 11:15:19;;;;;;;36.63;8.32;;;;;;;;;;5065727;28;20117;-57
2024/02/20 11:17:45;;;;;;;40.92;8.98;;;;;;;;;;5068097;28;20478;-59
2024/02/20 11:20:16;;;;;;;44.85;9.98;;;;;;;;;;5064918;28;20074;-59
2024/02/20 11:22:42;;;;;;;37.17;8.75;;;;;;;;;;5069146;28;20036;-59
2024/02/20 11:25:09;;;;;;;38.35;9.10;;;;;;;;;;5067192;28;20526;-59
2024/02/20 11:27:45;;;;;;;37.17;7.68;;;;;;;;;;5071111;28;20036;-61
2024/02/20 11:30:24;;;;;;;26.50;6.97;;;;;;;;;;5068738;28;20178;-61
2024/02/20 11:32:54;;;;;;;33.35;8.98;;;;;;;;;;5071728;28;20037;-61
2024/02/20 11:35:25;;;;;;;24.70;6.20;;;;;;;;;;5065857;28;20105;-61
2024/02/20 11:37:53;;;;;;;34.67;7.20;;;;;;;;;;5068010;28;20025;-61
2024/02/20 11:40:29;;;;;;;32.25;6.85;;;;;;;;;;5071892;28;20031;-61
2024/02/20 11:42:56;;;;;;;25.27;6.45;;;;;;;;;;5068931;28;20040;-61
2024/02/20 11:45:28;;;;;;;39.97;7.47;;;;;;;;;;5070364;28;20402;-61
2024/02/20 11:48:01;;;;;;;27.55;6.15;;;;;;;;;;5069825;28;20033;-60
2024/02/20 11:50:30;;;;;;;30.92;6.80;;;;;;;;;;5073041;28;20028;-61
2024/02/20 11:53:03;;;;;;;32.00;7.32;;;;;;;;;;5080299;28;20129;-61
2024/02/20 11:55:32;;;;;;;26.08;6.85;;;;;;;;;;5085569;28;20028;-60
2024/02/20 11:57:58;;;;;;;28.17;6.10;;;;;;;;;;5089940;28;20048;-62
2024/02/20 12:00:25;;;;;;;38.30;6.63;;;;;;;;;;5083906;28;20036;-61
2024/02/20 12:02:52;;;;;;;36.83;6.25;;;;;;;;;;5076408;28;20032;-61
2024/02/20 12:05:21;;;;;;;33.70;6.13;;;;;;;;;;5069798;28;20025;-60
2024/02/20 12:07:47;;;;;;;36.05;6.13;;;;;;;;;;5077793;28;20120;-60
2024/02/20 12:10:20;;;;;;;35.85;5.63;;;;;;;;;;5087207;28;20032;-61
2024/02/20 12:12:46;;;;;;;33.38;5.55;;;;;;;;;;5075102;28;20090;-61
2024/02/20 12:15:12;;;;;;;34.00;5.03;;;;;;;;;;5072856;28;20032;-59
2024/02/20 12:17:39;;;;;;;26.67;4.53;;;;;;;;;;5078814;28;20051;-60
2024/02/20 12:20:05;;;;;;;24.05;5.38;;;;;;;;;;5070052;28;20020;-59
2024/02/20 12:22:31;;;;;;;34.65;5.30;;;;;;;;;;5074902;28;20031;-61
2024/02/20 12:25:17;;;;;;;30.15;5.00;;;;;;;;;;5069159;28;20502;-60
2024/02/20 12:27:43;;;;;;;31.73;5.40;;;;;;;;;;5074564;28;20028;-61
2024/02/20 12:30:09;;;;;;;20.58;4.78;;;;;;;;;;5087315;28;20024;-61
2024/02/20 12:32:37;;;;;;;27.30;4.82;;;;;;;;;;5073853;28;20494;-61
2024/02/20 12:35:02;;;;;;;31.95;4.95;;;;;;;;;;5072016;28;20564;-58
2024/02/20 12:37:29;;;;;;;22.42;3.97;;;;;;;;;;5071993;28;20059;-59
2024/02/20 12:39:55;;;;;;;25.10;5.35;;;;;;;;;;5069683;28;20029;-59
2024/02/20 12:42:21;;;;;;;26.10;4.43;;;;;;;;;;5065244;28;20505;-60
2024/02/20 12:44:47;;;;;;;27.00;5.00;;;;;;;;;;5070136;28;20024;-60
2024/02/20 12:47:14;;;;;;;26.02;4.90;;;;;;;;;;5066145;28;20406;-59
2024/02/20 12:49:40;;;;;;;27.83;5.13;;;;;;;;;;5066666;28;20016;-58
2024/02/20 12:52:06;;;;;;;22.20;4.60;;;;;;;;;;5069366;28;20032;-60
2024/02/20 12:54:32;;;;;;;20.90;4.35;;;;;;;;;;5066331;28;20135;-59
2024/02/20 12:56:59;;;;;;;31.30;5.30;;;;;;;;;;5067715;28;20116;-60
2024/02/20 12:59:27;;;;;;;30.75;4.18;;;;;;;;;;5066644;28;20016;-59
2024/02/20 13:01:53;;;;;;;29.20;4.28;;;;;;;;;;5070358;28;20501;-60
2024/02/20 13:04:19;;;;;;;20.35;4.20;;;;;;;;;;5066108;28;20052;-60
2024/02/20 13:06:45;;;;;;;24.10;3.90;;;;;;;;;;5066958;28;20066;-60
2024/02/20 13:09:11;;;;;;;38.75;5.15;;;;;;;;;;5061689;28;20475;-59
2024/02/20 13:11:37;;;;;;;25.42;3.92;;;;;;;;;;5062692;28;20025;-60
2024/02/20 13:14:03;;;;;;;23.98;4.40;;;;;;;;;;5064519;28;20490;-60
2024/02/20 13:16:29;;;;;;;28.35;4.63;;;;;;;;;;5055584;28;20139;-59
2024/02/20 13:18:55;;;;;;;25.30;4.47;;;;;;;;;;5064345;28;20060;-59
2024/02/20 13:21:21;;;;;;;27.88;5.20;;;;;;;;;;5062262;28;20032;-60
2024/02/20 13:23:47;;;;;;;25.10;4.28;;;;;;;;;;5060954;28;20501;-59
2024/02/20 13:26:13;;;;;;;22.90;4.53;;;;;;;;;;5060402;28;20032;-58
2024/02/20 13:28:41;;;;;;;26.63;4.47;;;;;;;;;;5064408;28;20047;-60
2024/02/20 13:31:07;;;;;;;22.55;3.88;;;;;;;;;;5061140;28;20024;-59
2024/02/20 13:33:33;;;;;;;30.50;5.18;;;;;;;;;;5063563;28;20113;-59
2024/02/20 13:35:58;;;;;;;26.95;3.92;;;;;;;;;;5063186;28;20032;-59
2024/02/20 13:38:24;;;;;;;21.15;3.65;;;;;;;;;;5068904;28;20509;-59
2024/02/20 13:40:51;;;;;;;22.60;4.60;;;;;;;;;;5062682;28;20024;-58
2024/02/20 13:43:17;;;;;;;23.40;4.07;;;;;;;;;;5069893;28;20043;-59
2024/02/20 13:45:44;;;;;;;28.30;4.53;;;;;;;;;;5067913;28;20471;-61
2024/02/20 13:48:13;;;;;;;30.75;6.28;;;;;;;;;;5068781;28;20024;-61
2024/02/20 13:50:39;;;;;;;26.50;4.32;;;;;;;;;;5062263;28;20014;-61
2024/02/20 13:53:05;;;;;;;31.45;3.72;;;;;;;;;;5074663;28;20360;-61
2024/02/20 13:55:31;;;;;;;28.15;5.10;;;;;;;;;;5072754;28;20078;-61
2024/02/20 13:57:57;;;;;;;24.48;4.13;;;;;;;;;;5061467;28;20029;-65
2024/02/20 14:00:23;;;;;;;20.20;4.05;;;;;;;;;;5059457;28;20033;-64
2024/02/20 14:02:49;;;;;;;21.10;4.13;;;;;;;;;;5065033;28;20109;-64
2024/02/20 14:05:16;;;;;;;22.85;4.18;;;;;;;;;;5057601;28;20056;-64
2024/02/20 14:07:45;;;;;;;25.00;4.03;;;;;;;;;;5066537;28;20465;-66
2024/02/20 14:10:11;;;;;;;25.38;3.90;;;;;;;;;;5056951;28;20020;-64
2024/02/20 14:12:37;;;;;;;20.90;3.20;;;;;;;;;;5066534;28;20071;-61
2024/02/20 14:15:09;;;;;;;27.85;3.85;;;;;;;;;;5062933;28;20056;-64
2024/02/20 14:17:35;;;;;;;24.02;4.50;;;;;;;;;;5067415;28;20024;-65
2024/02/20 14:20:04;;;;;;;23.30;3.85;;;;;;;;;;5062934;28;20041;-65